Time;durP1;ratioP1;P1;durP2;ratioP2;P2;SDS_P1;SDS_P2;PMS_P1;PMS_P2;Temp;Humidity;BMP_temperature;BMP_pressure;BME280_temperature;BME280_humidity;BME280_pressure;Samples;Min_cycle;Max_cycle;Signal;HPM_P1;HPM_P2
2021/04/23 00:01:22;;;;;;;22.77;5.50;;;6.20;99.90;;;;;;5037716;28;20028;-55
2021/04/23 00:03:51;;;;;;;20.63;5.03;;;6.10;99.90;;;;;;5032460;28;20108;-53
2021/04/23 00:06:33;;;;;;;13.93;4.88;;;6.10;99.90;;;;;;5039146;28;20024;-53
2021/04/23 00:09:17;;;;;;;11.65;4.63;;;6.20;99.90;;;;;;5045204;28;20499;-54
2021/04/23 00:11:46;;;;;;;14.57;4.70;;;6.30;99.90;;;;;;5038501;28;20075;-56
2021/04/23 00:14:16;;;;;;;11.60;4.07;;;6.40;99.90;;;;;;5042872;28;20358;-56
2021/04/23 00:16:42;;;;;;;13.88;4.97;;;6.50;99.90;;;;;;5034171;28;20518;-56
2021/04/23 00:19:11;;;;;;;15.25;5.28;;;6.50;99.90;;;;;;5043126;28;20086;-58
2021/04/23 00:21:38;;;;;;;19.15;5.55;;;6.60;99.90;;;;;;5036913;28;20063;-55
2021/04/23 00:24:05;;;;;;;20.75;6.38;;;6.50;99.90;;;;;;5042789;28;20449;-53
2021/04/23 00:26:30;;;;;;;13.32;4.65;;;6.30;99.90;;;;;;5041788;28;20487;-52
2021/04/23 00:28:56;;;;;;;14.43;4.68;;;6.10;99.90;;;;;;5039881;28;20018;-58
2021/04/23 00:31:22;;;;;;;20.83;5.07;;;6.00;99.90;;;;;;5032372;28;20029;-54
2021/04/23 00:33:48;;;;;;;16.85;5.38;;;5.90;99.90;;;;;;5031472;28;20034;-56
2021/04/23 00:36:13;;;;;;;17.98;5.43;;;5.80;99.90;;;;;;5042816;28;20116;-56
2021/04/23 00:38:40;;;;;;;13.52;4.68;;;5.80;99.90;;;;;;5041745;28;20067;-59
2021/04/23 00:41:15;;;;;;;19.42;4.88;;;5.80;99.90;;;;;;5032952;28;20033;-58
2021/04/23 00:43:44;;;;;;;12.38;4.88;;;5.90;99.90;;;;;;5043262;28;20108;-57
2021/04/23 00:46:11;;;;;;;13.07;4.55;;;5.90;99.90;;;;;;5034238;28;20513;-56
2021/04/23 00:48:45;;;;;;;13.00;4.97;;;6.00;99.90;;;;;;5041682;28;20071;-56
2021/04/23 00:51:14;;;;;;;13.18;5.03;;;6.10;99.90;;;;;;5038817;28;20024;-58
2021/04/23 00:53:44;;;;;;;16.67;5.25;;;6.10;99.90;;;;;;5037762;28;20021;-57
2021/04/23 00:56:15;;;;;;;16.00;5.15;;;6.10;99.90;;;;;;5045716;28;20040;-58
2021/04/23 00:58:42;;;;;;;15.43;4.88;;;6.20;99.90;;;;;;5039797;28;20469;-56
2021/04/23 01:01:19;;;;;;;14.25;5.40;;;6.00;99.90;;;;;;5043033;28;20395;-55
2021/04/23 01:03:45;;;;;;;14.07;5.72;;;5.70;99.90;;;;;;5032714;28;20022;-57
2021/04/23 01:06:20;;;;;;;19.00;5.90;;;5.50;99.90;;;;;;5040040;28;20491;-53
2021/04/23 01:08:47;;;;;;;15.95;5.72;;;5.40;99.90;;;;;;5040037;28;20017;-53
2021/04/23 01:11:14;;;;;;;12.95;5.40;;;5.30;99.90;;;;;;5043944;28;20021;-55
2021/04/23 01:13:41;;;;;;;15.85;6.25;;;5.20;99.90;;;;;;5040096;28;20589;-56
2021/04/23 01:16:13;;;;;;;15.70;6.30;;;5.10;99.90;;;;;;5045591;28;20039;-53
2021/04/23 01:18:40;;;;;;;16.02;5.97;;;5.00;99.90;;;;;;5033642;28;20022;-56
2021/04/23 01:21:11;;;;;;;19.00;7.10;;;4.90;99.90;;;;;;5042727;28;20021;-53
2021/04/23 01:23:38;;;;;;;20.83;6.03;;;4.90;99.90;;;;;;5043660;28;20071;-56
2021/04/23 01:26:06;;;;;;;31.77;6.28;;;4.90;99.90;;;;;;5039274;28;20035;-53
2021/04/23 01:28:33;;;;;;;17.58;7.38;;;4.80;99.90;;;;;;5033591;28;20407;-54
2021/04/23 01:31:01;;;;;;;23.75;7.75;;;4.90;99.90;;;;;;5036256;28;20033;-53
2021/04/23 01:33:27;;;;;;;18.77;6.50;;;5.00;99.90;;;;;;5039799;28;20017;-55
2021/04/23 01:35:53;;;;;;;21.75;6.43;;;5.00;99.90;;;;;;5036977;28;20435;-54
2021/04/23 01:38:19;;;;;;;19.60;6.55;;;5.10;99.90;;;;;;5039961;28;20029;-56
2021/04/23 01:40:45;;;;;;;26.58;6.15;;;5.00;99.90;;;;;;5040676;28;20075;-53
2021/04/23 01:43:11;;;;;;;19.65;7.00;;;4.90;99.90;;;;;;5032157;28;20029;-54
2021/04/23 01:45:38;;;;;;;17.17;6.10;;;4.80;99.90;;;;;;5038033;28;20047;-53
2021/04/23 01:48:04;;;;;;;17.08;5.95;;;4.70;99.90;;;;;;5037996;28;20029;-56
2021/04/23 01:50:30;;;;;;;23.85;6.90;;;4.70;99.90;;;;;;5037135;28;20021;-53
2021/04/23 01:52:56;;;;;;;15.82;5.63;;;4.70;99.90;;;;;;5041188;28;20446;-56
2021/04/23 01:55:23;;;;;;;16.02;7.10;;;4.70;99.90;;;;;;5040770;28;20080;-56
2021/04/23 01:57:49;;;;;;;17.75;6.15;;;4.80;99.90;;;;;;5041904;28;20013;-54
2021/04/23 02:00:18;;;;;;;20.70;6.35;;;4.90;99.90;;;;;;5039974;28;20101;-56
2021/04/23 02:02:44;;;;;;;14.32;5.95;;;4.90;99.90;;;;;;5028354;28;20105;-55
2021/04/23 02:05:10;;;;;;;14.85;6.25;;;5.00;99.90;;;;;;5033132;28;20096;-59
2021/04/23 02:07:36;;;;;;;17.23;7.13;;;4.80;99.90;;;;;;5037007;28;20021;-57
2021/04/23 02:10:07;;;;;;;16.85;6.80;;;4.60;99.90;;;;;;5035637;28;20025;-57
2021/04/23 02:12:33;;;;;;;17.48;6.75;;;4.40;99.90;;;;;;5037433;28;20455;-57
2021/04/23 02:14:59;;;;;;;19.17;6.40;;;4.30;99.90;;;;;;5034302;28;20021;-58
2021/04/23 02:17:25;;;;;;;21.17;6.78;;;4.10;99.90;;;;;;5031513;28;20040;-56
2021/04/23 02:19:50;;;;;;;18.77;7.63;;;4.00;99.90;;;;;;5040354;28;20392;-56
2021/04/23 02:22:16;;;;;;;47.75;9.30;;;3.90;99.90;;;;;;5033999;28;20384;-53
2021/04/23 02:24:41;;;;;;;21.33;7.05;;;3.80;99.90;;;;;;5036778;28;20853;-52
2021/04/23 02:27:07;;;;;;;19.20;7.05;;;3.70;99.90;;;;;;5042314;28;20495;-54
2021/04/23 02:29:32;;;;;;;30.77;7.97;;;3.80;99.90;;;;;;5042761;28;20068;-56
2021/04/23 02:31:58;;;;;;;21.23;7.05;;;3.70;99.90;;;;;;5046974;28;20025;-58
2021/04/23 02:36:54;;;;;;;16.25;7.35;;;3.70;99.90;;;;;;5075175;22;20049;-58
2021/04/23 02:39:20;;;;;;;30.83;8.18;;;3.70;99.90;;;;;;5054641;28;20029;-55
2021/04/23 02:41:48;;;;;;;22.30;7.78;;;3.60;99.90;;;;;;5052808;28;20021;-56
2021/04/23 02:44:14;;;;;;;19.75;8.38;;;3.60;99.90;;;;;;5052179;28;20471;-57
2021/04/23 02:46:41;;;;;;;31.83;8.77;;;3.50;99.90;;;;;;5052496;28;20075;-57
2021/04/23 02:49:08;;;;;;;22.83;8.23;;;3.50;99.90;;;;;;5051571;28;20009;-57
2021/04/23 02:51:37;;;;;;;25.88;9.00;;;3.40;99.90;;;;;;5056830;28;20031;-58
2021/04/23 02:54:04;;;;;;;31.90;8.75;;;3.40;99.90;;;;;;5052564;28;20031;-57
2021/04/23 02:56:31;;;;;;;21.48;8.93;;;3.30;99.90;;;;;;5052376;28;20039;-60
2021/04/23 02:58:57;;;;;;;24.67;9.60;;;3.40;99.90;;;;;;5055545;28;20623;-59
2021/04/23 03:01:27;;;;;;;24.33;9.48;;;3.30;99.90;;;;;;5055744;28;20021;-59
2021/04/23 03:03:53;;;;;;;29.23;9.55;;;3.30;99.90;;;;;;5051952;28;20029;-58
2021/04/23 03:06:19;;;;;;;27.92;9.70;;;3.20;99.90;;;;;;5053175;28;20029;-59
2021/04/23 03:08:45;;;;;;;21.98;9.25;;;3.20;99.90;;;;;;5051741;28;20510;-59
2021/04/23 03:11:14;;;;;;;31.70;9.45;;;3.20;99.90;;;;;;5051519;28;20044;-59
2021/04/23 03:13:42;;;;;;;25.70;10.05;;;3.10;99.90;;;;;;5046161;28;20083;-59
2021/04/23 03:16:08;;;;;;;19.92;8.38;;;3.00;99.90;;;;;;5052879;28;20049;-59
2021/04/23 03:18:37;;;;;;;22.75;9.20;;;3.00;99.90;;;;;;5057591;28;20520;-59
2021/04/23 03:21:05;;;;;;;24.05;9.15;;;3.00;99.90;;;;;;5046311;28;20406;-59
2021/04/23 03:23:31;;;;;;;26.38;10.30;;;3.00;99.90;;;;;;5044313;28;20554;-60
2021/04/23 03:26:03;;;;;;;26.42;9.02;;;3.00;99.90;;;;;;5029944;28;20410;-56
2021/04/23 03:28:29;;;;;;;29.40;10.02;;;3.00;99.90;;;;;;5060748;28;20029;-59
2021/04/23 03:30:55;;;;;;;30.17;10.20;;;3.00;99.90;;;;;;5052489;28;20025;-59
2021/04/23 03:33:21;;;;;;;27.80;9.75;;;2.90;99.90;;;;;;5048785;28;20223;-59
2021/04/23 03:35:50;;;;;;;37.25;9.85;;;2.90;99.90;;;;;;5053041;28;20025;-56
2021/04/23 03:38:17;;;;;;;26.13;9.85;;;2.90;99.90;;;;;;5050649;28;20472;-55
2021/04/23 03:40:43;;;;;;;33.03;10.27;;;2.90;99.90;;;;;;5049011;28;20095;-59
2021/04/23 03:43:09;;;;;;;36.60;12.60;;;2.90;99.90;;;;;;5032393;28;20083;-59
2021/04/23 03:45:35;;;;;;;30.13;10.70;;;2.80;99.90;;;;;;5058189;28;20032;-59
2021/04/23 03:48:02;;;;;;;31.88;10.77;;;2.80;99.90;;;;;;5057777;28;20570;-58
2021/04/23 03:50:31;;;;;;;28.65;10.90;;;2.80;99.90;;;;;;5046692;28;20051;-55
2021/04/23 03:52:59;;;;;;;33.28;10.13;;;2.80;99.90;;;;;;5050006;28;20115;-60
2021/04/23 03:55:28;;;;;;;32.65;11.32;;;2.80;99.90;;;;;;5049027;28;20380;-58
2021/04/23 03:57:54;;;;;;;38.63;12.75;;;2.70;99.90;;;;;;5053596;28;20017;-58
2021/04/23 04:00:29;;;;;;;45.30;13.00;;;2.70;99.90;;;;;;5043471;28;20021;-58
2021/04/23 04:02:54;;;;;;;40.55;11.15;;;2.70;99.90;;;;;;5049971;28;20029;-58
2021/04/23 04:05:20;;;;;;;26.88;11.55;;;2.70;99.90;;;;;;5047374;28;20029;-59
2021/04/23 04:07:47;;;;;;;32.30;11.27;;;2.60;99.90;;;;;;5051350;28;20131;-59
2021/04/23 04:10:14;;;;;;;29.35;11.38;;;2.60;99.90;;;;;;5051080;28;20108;-58
2021/04/23 04:12:39;;;;;;;30.92;11.88;;;2.50;99.90;;;;;;5041421;28;20025;-58
2021/04/23 04:15:06;;;;;;;33.90;12.40;;;2.60;99.90;;;;;;5049421;28;20021;-59
2021/04/23 04:17:32;;;;;;;40.30;11.32;;;2.60;99.90;;;;;;5050291;28;20394;-57
2021/04/23 04:19:57;;;;;;;38.75;12.98;;;2.60;99.90;;;;;;5049480;28;20028;-57
2021/04/23 04:22:23;;;;;;;39.70;11.95;;;2.60;99.90;;;;;;5045316;28;20039;-59
2021/04/23 04:24:49;;;;;;;37.05;11.50;;;2.60;99.90;;;;;;5052415;28;20035;-59
2021/04/23 04:27:17;;;;;;;32.15;11.77;;;2.60;99.90;;;;;;5055697;28;20410;-59
2021/04/23 04:29:44;;;;;;;36.03;11.45;;;2.60;99.90;;;;;;5057388;28;20352;-59
2021/04/23 04:32:10;;;;;;;32.08;11.95;;;2.60;99.90;;;;;;5050547;28;20037;-59
2021/04/23 04:34:35;;;;;;;31.88;10.85;;;2.60;99.90;;;;;;5052018;28;20090;-59
2021/04/23 04:37:01;;;;;;;32.13;11.85;;;2.60;99.90;;;;;;5058635;28;20037;-59
2021/04/23 04:39:27;;;;;;;32.47;13.05;;;2.60;99.90;;;;;;5050708;28;20032;-59
2021/04/23 04:41:52;;;;;;;31.98;12.40;;;2.70;99.90;;;;;;5048612;28;20025;-59
2021/04/23 04:44:18;;;;;;;38.63;12.98;;;2.60;99.90;;;;;;5051409;28;20440;-58
2021/04/23 04:46:44;;;;;;;34.85;12.35;;;2.60;99.90;;;;;;5065276;28;20648;-60
2021/04/23 04:49:09;;;;;;;29.88;11.20;;;2.70;99.90;;;;;;5050418;28;20028;-59
2021/04/23 04:51:35;;;;;;;28.80;12.30;;;2.70;99.90;;;;;;5046687;28;20057;-59
2021/04/23 04:54:01;;;;;;;40.42;12.90;;;2.70;99.90;;;;;;5044426;28;20521;-59
2021/04/23 04:56:26;;;;;;;27.33;12.35;;;2.70;99.90;;;;;;5051187;28;20032;-59
2021/04/23 04:58:52;;;;;;;35.03;11.50;;;2.70;99.90;;;;;;5052839;28;20082;-57
2021/04/23 05:01:18;;;;;;;28.52;11.45;;;2.80;99.90;;;;;;5052950;28;20116;-58
2021/04/23 05:03:44;;;;;;;30.98;12.25;;;2.90;99.90;;;;;;5050069;28;20494;-59
2021/04/23 05:06:11;;;;;;;32.10;11.77;;;3.00;99.90;;;;;;5053879;28;20071;-59
2021/04/23 05:08:37;;;;;;;32.13;11.73;;;3.10;99.90;;;;;;5060742;28;20100;-59
2021/04/23 05:11:04;;;;;;;40.20;11.85;;;3.10;99.90;;;;;;5049007;28;20029;-59
2021/04/23 05:13:29;;;;;;;28.63;11.68;;;3.20;99.90;;;;;;5043942;28;20511;-59
2021/04/23 05:15:55;;;;;;;29.42;11.77;;;3.30;99.90;;;;;;5054326;28;20054;-57
2021/04/23 05:18:21;;;;;;;25.80;10.68;;;3.40;99.90;;;;;;5050598;28;20441;-59
2021/04/23 05:20:47;;;;;;;35.78;11.45;;;3.50;99.90;;;;;;5044670;28;20499;-57
2021/04/23 05:23:12;;;;;;;35.08;12.35;;;3.60;99.90;;;;;;5048478;28;20047;-57
2021/04/23 05:25:38;;;;;;;33.40;12.20;;;3.70;99.90;;;;;;5050238;28;20477;-59
2021/04/23 05:28:04;;;;;;;30.75;11.27;;;3.70;99.90;;;;;;5049577;28;20451;-57
2021/04/23 05:30:33;;;;;;;29.50;11.20;;;3.70;99.90;;;;;;5042781;28;20021;-58
2021/04/23 05:33:01;;;;;;;42.35;11.95;;;3.70;99.90;;;;;;5039569;28;20036;-58
2021/04/23 05:35:27;;;;;;;34.45;12.55;;;3.80;99.90;;;;;;5036408;28;20133;-58
2021/04/23 05:37:53;;;;;;;31.73;12.02;;;3.90;99.90;;;;;;5041163;28;20518;-59
2021/04/23 05:40:24;;;;;;;33.60;12.32;;;4.00;99.90;;;;;;5042231;28;20029;-59
2021/04/23 05:42:51;;;;;;;38.80;12.55;;;4.00;99.90;;;;;;5036134;28;20022;-59
2021/04/23 05:45:16;;;;;;;28.83;12.25;;;4.20;99.90;;;;;;5040983;28;20029;-58
2021/04/23 05:47:42;;;;;;;30.15;11.52;;;4.30;99.90;;;;;;5038441;28;20048;-58
2021/04/23 05:50:10;;;;;;;35.95;12.75;;;4.30;99.90;;;;;;5035133;28;20017;-58
2021/04/23 05:52:36;;;;;;;28.38;11.93;;;4.40;99.90;;;;;;5033988;28;20641;-59
2021/04/23 05:55:04;;;;;;;31.60;12.23;;;4.60;99.90;;;;;;5034280;28;20017;-59
2021/04/23 05:57:29;;;;;;;33.53;11.68;;;4.70;99.90;;;;;;5039485;28;20112;-59
2021/04/23 05:59:55;;;;;;;28.05;11.43;;;4.80;99.90;;;;;;5038700;28;20103;-60
2021/04/23 06:02:20;;;;;;;28.15;12.05;;;4.90;99.90;;;;;;5038575;28;20037;-58
2021/04/23 06:04:46;;;;;;;38.90;12.73;;;5.00;99.90;;;;;;5033304;28;20026;-56
2021/04/23 06:07:12;;;;;;;29.15;11.98;;;5.10;99.90;;;;;;5033596;28;20674;-56
2021/04/23 06:09:37;;;;;;;34.65;11.18;;;5.20;99.90;;;;;;5035085;28;20018;-54
2021/04/23 06:12:03;;;;;;;34.40;12.63;;;5.30;99.90;;;;;;5039446;28;20395;-55
2021/04/23 06:14:29;;;;;;;26.45;11.40;;;5.40;99.90;;;;;;5039675;28;20060;-55
2021/04/23 06:16:56;;;;;;;37.17;12.02;;;5.50;99.90;;;;;;5035906;28;20083;-55
2021/04/23 06:19:21;;;;;;;31.02;11.82;;;5.60;99.90;;;;;;5036683;28;20024;-55
2021/04/23 06:21:47;;;;;;;34.65;13.80;;;5.70;99.90;;;;;;5012339;28;20363;-53
2021/04/23 06:24:13;;;;;;;33.88;11.88;;;5.80;99.90;;;;;;5037774;28;20021;-55
2021/04/23 06:26:39;;;;;;;29.13;11.55;;;5.90;99.90;;;;;;5032521;28;20392;-56
2021/04/23 06:29:04;;;;;;;32.10;12.25;;;6.00;99.90;;;;;;5039135;28;20029;-55
2021/04/23 06:31:30;;;;;;;28.20;12.50;;;6.10;99.90;;;;;;5039115;28;20037;-56
2021/04/23 06:33:56;;;;;;;36.47;11.35;;;6.20;99.90;;;;;;5038039;28;20584;-55
2021/04/23 06:36:22;;;;;;;34.05;11.90;;;6.30;99.90;;;;;;5037066;28;20073;-58
2021/04/23 06:38:48;;;;;;;33.22;11.45;;;6.30;99.90;;;;;;5035927;28;20491;-58
2021/04/23 06:41:14;;;;;;;25.83;10.82;;;6.40;99.90;;;;;;5043613;28;20408;-56
2021/04/23 06:43:44;;;;;;;29.63;10.23;;;6.40;99.90;;;;;;5036440;28;20448;-57
2021/04/23 06:46:11;;;;;;;30.70;10.25;;;6.50;99.90;;;;;;5033796;28;20075;-55
2021/04/23 06:48:37;;;;;;;25.80;10.70;;;6.60;99.90;;;;;;5033028;28;20039;-56
2021/04/23 06:51:04;;;;;;;28.63;10.88;;;6.60;99.90;;;;;;5037696;28;20499;-55
2021/04/23 06:53:31;;;;;;;36.05;10.98;;;6.70;99.90;;;;;;5035540;28;20021;-56
2021/04/23 06:56:00;;;;;;;25.90;9.30;;;6.70;99.90;;;;;;5039023;28;20056;-57
2021/04/23 06:58:26;;;;;;;25.92;10.93;;;6.80;99.90;;;;;;5034929;28;20029;-56
2021/04/23 07:00:52;;;;;;;27.15;10.80;;;6.80;99.90;;;;;;5035606;28;20544;-54
2021/04/23 07:03:17;;;;;;;26.80;11.13;;;6.90;99.90;;;;;;5034624;28;20117;-55
2021/04/23 07:05:44;;;;;;;22.88;9.68;;;6.90;99.90;;;;;;5032943;28;20499;-56
2021/04/23 07:08:10;;;;;;;31.33;10.68;;;7.00;99.90;;;;;;5038181;28;20032;-54
2021/04/23 07:10:37;;;;;;;30.50;10.52;;;7.00;99.90;;;;;;5041239;28;20017;-55
2021/04/23 07:13:03;;;;;;;29.52;11.88;;;7.10;99.90;;;;;;5039311;28;20021;-55
2021/04/23 07:15:31;;;;;;;35.83;10.63;;;7.20;99.90;;;;;;5040958;28;20104;-56
2021/04/23 07:17:57;;;;;;;31.98;11.82;;;7.20;99.90;;;;;;5042798;28;20039;-55
2021/04/23 07:20:24;;;;;;;26.02;10.82;;;7.30;99.90;;;;;;5042177;28;20129;-54
2021/04/23 07:22:51;;;;;;;40.08;10.48;;;7.40;99.90;;;;;;5038348;28;20029;-57
2021/04/23 07:25:17;;;;;;;21.35;10.57;;;7.40;99.90;;;;;;5033233;28;20095;-56
2021/04/23 07:27:43;;;;;;;26.70;10.10;;;7.50;99.90;;;;;;5037775;28;20026;-55
2021/04/23 07:30:19;;;;;;;26.25;10.90;;;7.50;99.90;;;;;;5021141;28;20450;-57
2021/04/23 07:32:46;;;;;;;30.75;10.32;;;7.50;99.90;;;;;;5037831;28;20033;-57
2021/04/23 07:35:12;;;;;;;24.50;9.13;;;7.70;99.90;;;;;;5035976;28;20084;-59
2021/04/23 07:37:38;;;;;;;21.55;9.75;;;7.70;99.90;;;;;;5038018;28;20048;-58
2021/04/23 07:40:06;;;;;;;38.15;9.98;;;7.60;99.90;;;;;;5042761;28;20376;-56
2021/04/23 07:42:31;;;;;;;23.85;9.07;;;7.60;99.90;;;;;;5025598;28;20036;-58
2021/04/23 07:44:57;;;;;;;23.08;8.93;;;7.60;99.90;;;;;;5045418;28;20036;-55
2021/04/23 07:47:23;;;;;;;22.95;8.90;;;7.70;99.90;;;;;;5040548;28;20184;-57
2021/04/23 07:49:49;;;;;;;22.10;7.93;;;7.60;99.90;;;;;;5040710;28;20021;-56
2021/04/23 07:52:15;;;;;;;22.65;7.43;;;7.70;99.90;;;;;;5040151;28;20114;-54
2021/04/23 07:54:42;;;;;;;16.55;7.95;;;7.70;99.90;;;;;;5031123;28;20055;-57
2021/04/23 07:57:09;;;;;;;17.73;7.47;;;7.80;99.90;;;;;;5038584;28;20024;-57
2021/04/23 07:59:36;;;;;;;26.27;8.35;;;7.90;99.90;;;;;;5038968;28;20483;-58
2021/04/23 08:02:03;;;;;;;14.13;6.95;;;8.00;99.90;;;;;;5045938;28;20058;-57
2021/04/23 08:04:29;;;;;;;24.13;7.63;;;8.10;99.90;;;;;;5039566;28;20660;-57
2021/04/23 08:06:55;;;;;;;23.48;7.75;;;8.10;99.90;;;;;;5018183;28;20427;-57
2021/04/23 08:09:20;;;;;;;19.30;8.25;;;8.10;99.90;;;;;;5028244;28;20021;-57
2021/04/23 08:11:46;;;;;;;23.13;9.10;;;8.20;99.90;;;;;;5023126;28;20030;-56
2021/04/23 08:14:12;;;;;;;26.88;7.60;;;8.30;99.90;;;;;;5025596;28;20023;-56
2021/04/23 08:16:38;;;;;;;17.23;8.20;;;8.40;99.90;;;;;;5029294;28;20031;-54
2021/04/23 08:19:03;;;;;;;22.63;7.07;;;8.40;99.90;;;;;;5026316;28;20482;-57
2021/04/23 08:21:30;;;;;;;16.02;7.25;;;8.50;99.90;;;;;;5029343;28;20032;-56
2021/04/23 08:23:55;;;;;;;20.60;6.55;;;8.50;99.90;;;;;;5027214;28;20066;-55
2021/04/23 08:26:23;;;;;;;20.42;7.80;;;8.40;99.90;;;;;;5027519;28;20021;-56
2021/04/23 08:28:49;;;;;;;21.15;7.75;;;8.40;99.90;;;;;;5051227;28;20112;-56
2021/04/23 08:31:14;;;;;;;25.50;8.38;;;8.50;99.90;;;;;;5034588;28;20048;-56
2021/04/23 08:33:40;;;;;;;18.17;6.85;;;8.50;99.90;;;;;;5024785;28;20030;-55
2021/04/23 08:36:06;;;;;;;22.45;6.95;;;8.50;99.90;;;;;;5072414;23;20076;-54
2021/04/23 08:38:32;;;;;;;15.35;6.38;;;8.60;99.90;;;;;;5077177;28;20379;-56
2021/04/23 08:40:57;;;;;;;16.75;6.45;;;8.70;99.90;;;;;;5062862;28;20119;-57
2021/04/23 08:43:27;;;;;;;16.33;6.07;;;8.70;99.90;;;;;;5078352;28;20021;-59
2021/04/23 08:45:53;;;;;;;18.52;6.65;;;8.90;99.90;;;;;;5069925;28;20048;-58
2021/04/23 08:48:20;;;;;;;15.35;6.65;;;8.90;99.90;;;;;;5054267;28;20043;-57
2021/04/23 08:50:46;;;;;;;19.48;6.80;;;8.90;99.90;;;;;;5035171;28;20033;-59
2021/04/23 08:53:12;;;;;;;14.38;7.32;;;9.00;99.90;;;;;;5060672;28;20021;-56
2021/04/23 08:55:38;;;;;;;18.58;6.72;;;9.00;99.90;;;;;;5064904;28;20017;-56
2021/04/23 08:58:04;;;;;;;18.50;7.38;;;9.00;99.90;;;;;;5063703;28;20025;-57
2021/04/23 09:00:30;;;;;;;27.20;7.97;;;9.10;99.90;;;;;;5067806;28;20678;-58
2021/04/23 09:02:56;;;;;;;16.92;7.40;;;9.20;99.90;;;;;;5063565;28;20040;-57
2021/04/23 09:05:22;;;;;;;16.70;7.05;;;9.30;99.90;;;;;;5062179;28;20071;-59
2021/04/23 09:08:08;;;;;;;17.65;7.20;;;9.30;99.90;;;;;;5064402;28;20029;-58
2021/04/23 09:10:36;;;;;;;18.73;6.82;;;9.30;99.90;;;;;;5066210;28;20031;-57
2021/04/23 09:13:16;;;;;;;16.00;6.82;;;9.40;99.90;;;;;;5033004;28;20028;-57
2021/04/23 09:15:44;;;;;;;17.98;6.57;;;9.50;99.90;;;;;;5030246;28;20025;-51
2021/04/23 09:18:21;;;;;;;15.35;6.35;;;9.70;99.90;;;;;;5050354;28;20587;-57
2021/04/23 09:20:49;;;;;;;21.45;7.25;;;9.90;99.90;;;;;;5041723;28;20169;-57
2021/04/23 09:23:22;;;;;;;18.15;6.95;;;9.90;99.90;;;;;;5049633;28;20025;-57
2021/04/23 09:25:51;;;;;;;20.02;6.45;;;10.10;99.90;;;;;;5061171;28;20021;-60
2021/04/23 09:28:36;;;;;;;14.30;7.15;;;10.20;99.90;;;;;;5071957;28;20032;-55
2021/04/23 09:31:34;;;;;;;16.55;6.57;;;10.40;99.90;;;;;;5065902;28;20028;-58
2021/04/23 09:34:01;;;;;;;14.93;5.43;;;10.40;99.90;;;;;;5065453;28;20107;-57
2021/04/23 09:36:32;;;;;;;17.88;6.05;;;10.40;99.90;;;;;;5065333;28;20036;-54
2021/04/23 09:39:16;;;;;;;14.63;6.47;;;10.50;99.90;;;;;;5067758;28;20086;-59
2021/04/23 09:41:54;;;;;;;11.32;5.55;;;10.50;99.90;;;;;;5071077;28;20024;-56
2021/04/23 09:44:34;;;;;;;16.67;5.85;;;10.70;99.90;;;;;;5068521;28;20035;-54
2021/04/23 09:47:20;;;;;;;23.70;6.13;;;10.70;99.90;;;;;;5065244;28;20028;-55
2021/04/23 09:49:50;;;;;;;17.83;6.68;;;10.60;99.90;;;;;;5069890;28;20020;-57
2021/04/23 09:52:15;;;;;;;14.68;6.32;;;10.70;99.90;;;;;;5056361;28;20028;-54
2021/04/23 09:54:50;;;;;;;15.80;6.55;;;10.80;99.90;;;;;;5047358;28;20061;-56
2021/04/23 09:57:19;;;;;;;21.30;6.95;;;11.10;99.90;;;;;;5034528;28;20020;-56
2021/04/23 09:59:54;;;;;;;24.63;6.57;;;11.20;99.90;;;;;;5049145;28;20060;-53
2021/04/23 10:02:26;;;;;;;14.63;6.68;;;11.30;99.90;;;;;;5049267;28;20359;-58
2021/04/23 10:04:54;;;;;;;16.55;7.03;;;11.40;99.90;;;;;;5047888;28;20109;-55
2021/04/23 10:07:26;;;;;;;11.13;6.07;;;11.30;99.90;;;;;;5063376;28;20161;-57
2021/04/23 10:09:53;;;;;;;19.38;6.65;;;11.20;99.90;;;;;;5041641;28;20062;-60
2021/04/23 10:12:40;;;;;;;17.85;5.55;;;11.40;99.90;;;;;;5066810;28;20094;-58
2021/04/23 10:15:40;;;;;;;11.30;5.43;;;11.60;99.90;;;;;;5061384;28;20429;-58
2021/04/23 10:18:10;;;;;;;17.60;6.00;;;12.10;99.90;;;;;;5066479;28;20104;-57
2021/04/23 10:20:40;;;;;;;14.98;6.20;;;12.30;99.90;;;;;;5064738;28;20071;-57
2021/04/23 10:23:11;;;;;;;18.55;6.63;;;12.40;99.90;;;;;;5066546;28;20444;-58
2021/04/23 10:25:38;;;;;;;16.50;6.95;;;12.60;99.90;;;;;;5044599;28;20413;-57
2021/04/23 10:28:11;;;;;;;13.93;6.00;;;12.70;99.90;;;;;;5060693;28;20029;-57
2021/04/23 10:30:40;;;;;;;14.27;5.05;;;13.00;99.90;;;;;;5071692;28;20111;-57
2021/04/23 10:33:11;;;;;;;11.10;4.65;;;12.90;99.90;;;;;;5071675;28;20028;-57
2021/04/23 10:35:38;;;;;;;16.90;7.25;;;12.80;99.90;;;;;;5070571;28;20548;-57
2021/04/23 10:38:07;;;;;;;14.43;5.90;;;12.40;99.90;;;;;;5070052;28;20082;-57
2021/04/23 10:40:34;;;;;;;21.20;6.20;;;12.40;99.90;;;;;;5073496;28;20488;-57
2021/04/23 10:43:04;;;;;;;13.05;5.45;;;12.60;99.90;;;;;;5067777;28;20037;-57
2021/04/23 10:45:35;;;;;;;17.00;5.80;;;12.80;99.90;;;;;;5065777;28;20040;-58
2021/04/23 10:48:22;;;;;;;25.67;7.47;;;12.90;99.90;;;;;;5063636;28;20021;-58
2021/04/23 10:50:54;;;;;;;15.25;6.50;;;13.20;99.90;;;;;;5065733;28;20526;-58
2021/04/23 10:53:25;;;;;;;17.80;5.22;;;13.20;99.90;;;;;;5069555;28;20028;-58
2021/04/23 10:55:53;;;;;;;18.40;5.95;;;13.50;99.90;;;;;;5070604;28;20034;-59
2021/04/23 10:58:37;;;;;;;17.13;5.95;;;13.80;99.90;;;;;;5068420;28;20506;-59
2021/04/23 11:01:18;;;;;;;12.43;5.03;;;14.00;99.90;;;;;;5068241;28;20021;-58
2021/04/23 11:03:56;;;;;;;15.70;5.32;;;14.20;99.90;;;;;;5070133;28;20021;-54
2021/04/23 11:06:21;;;;;;;12.80;5.32;;;14.00;99.90;;;;;;5067386;28;20410;-57
2021/04/23 11:09:03;;;;;;;17.05;5.75;;;13.70;99.90;;;;;;5063492;28;20104;-57
2021/04/23 11:11:40;;;;;;;13.43;5.28;;;13.40;99.90;;;;;;5066657;28;20031;-54
2021/04/23 11:14:27;;;;;;;10.60;4.88;;;13.60;99.90;;;;;;5052841;28;20096;-57
2021/04/23 11:25:00;;;;;;;19.58;5.57;;;14.00;99.90;;;;;;5064384;27;20439;-57
2021/04/23 11:27:26;;;;;;;13.18;5.43;;;14.40;99.90;;;;;;5063952;28;20033;-57
2021/04/23 11:29:54;;;;;;;15.45;5.45;;;14.40;99.90;;;;;;5066625;28;20079;-56
2021/04/23 11:32:25;;;;;;;10.63;4.93;;;14.60;99.90;;;;;;5056492;28;20021;-55
2021/04/23 11:34:54;;;;;;;9.90;4.85;;;14.60;99.90;;;;;;5057728;28;20036;-54
2021/04/23 11:37:48;;;;;;;13.07;5.20;;;14.60;99.80;;;;;;5073331;22;20417;-53
2021/04/23 11:40:13;;;;;;;7.43;5.03;;;14.40;98.80;;;;;;5057529;28;20033;-54
2021/04/23 11:42:57;;;;;;;11.13;4.50;;;14.50;98.30;;;;;;5062717;28;20154;-56
2021/04/23 11:45:28;;;;;;;16.45;5.53;;;14.20;97.90;;;;;;5056606;28;20117;-51
2021/04/23 11:48:04;;;;;;;11.13;5.32;;;14.30;98.40;;;;;;5036585;28;20021;-55
2021/04/23 11:50:32;;;;;;;12.40;5.78;;;14.40;97.90;;;;;;5040638;28;20078;-52
2021/04/23 11:53:09;;;;;;;11.75;5.75;;;14.50;97.90;;;;;;5044629;28;20033;-52
2021/04/23 11:55:40;;;;;;;15.88;5.72;;;14.50;98.20;;;;;;5045239;28;20025;-52
2021/04/23 11:58:08;;;;;;;101.80;11.98;;;14.50;97.20;;;;;;5038976;28;20112;-51
2021/04/23 12:00:35;;;;;;;17.92;6.38;;;14.60;99.60;;;;;;5044424;28;20036;-51
2021/04/23 12:03:08;;;;;;;15.15;5.57;;;14.90;97.80;;;;;;5040422;28;20060;-50
2021/04/23 12:05:39;;;;;;;20.13;5.70;;;15.00;98.70;;;;;;5043254;28;20028;-53
2021/04/23 12:08:19;;;;;;;17.73;6.30;;;15.40;98.10;;;;;;5039809;28;20061;-52
2021/04/23 12:10:46;;;;;;;16.88;6.03;;;15.80;97.20;;;;;;5044702;28;20028;-55
2021/04/23 12:13:17;;;;;;;15.80;6.50;;;15.50;97.40;;;;;;5034414;28;20029;-52
2021/04/23 12:15:44;;;;;;;14.82;6.28;;;15.20;97.60;;;;;;5045009;28;20037;-52
2021/04/23 12:18:12;;;;;;;15.95;6.18;;;15.20;98.70;;;;;;5040081;28;20037;-53
2021/04/23 12:20:41;;;;;;;9.80;5.03;;;14.80;96.90;;;;;;5042857;28;20159;-50
2021/04/23 12:23:10;;;;;;;9.38;5.68;;;15.10;96.00;;;;;;5040207;28;20394;-49
2021/04/23 12:25:47;;;;;;;10.40;5.18;;;15.30;95.40;;;;;;5042509;28;20029;-48
2021/04/23 12:28:35;;;;;;;23.40;6.32;;;15.30;95.20;;;;;;5043852;28;20048;-48
2021/04/23 12:31:18;;;;;;;11.82;6.50;;;15.10;95.90;;;;;;5041153;28;20021;-52
2021/04/23 12:34:02;;;;;;;9.23;5.38;;;15.20;96.00;;;;;;5040292;28;20031;-52
2021/04/23 12:36:35;;;;;;;12.13;6.33;;;15.50;96.60;;;;;;5031262;28;20131;-51
2021/04/23 12:39:06;;;;;;;14.27;6.28;;;15.50;95.60;;;;;;5029486;28;20117;-50
2021/04/23 12:41:38;;;;;;;20.63;6.43;;;15.30;95.40;;;;;;5024877;28;20407;-51
2021/04/23 12:44:16;;;;;;;16.38;6.13;;;15.00;96.70;;;;;;5030086;28;20029;-48
2021/04/23 12:46:46;;;;;;;14.15;6.25;;;15.40;95.30;;;;;;5027423;28;20029;-50
2021/04/23 12:49:18;;;;;;;11.82;6.28;;;15.50;95.60;;;;;;5028596;28;20491;-49
2021/04/23 12:51:50;;;;;;;14.32;5.82;;;15.60;95.00;;;;;;5027084;28;20620;-52
2021/04/23 12:54:18;;;;;;;15.15;6.95;;;15.40;94.20;;;;;;5028906;28;20033;-56
2021/04/23 12:56:53;;;;;;;14.73;5.43;;;15.40;94.20;;;;;;5030248;28;20035;-56
2021/04/23 12:59:35;;;;;;;15.00;6.05;;;15.60;96.20;;;;;;5024028;28;20060;-52